Manitowoc, Wisconsin
Current Conditions -  °F | °C
As of 6:56 PM on Sunday 23 Nov 2014 (Local Time) from KMTW Reporting Station
Light Rain Light Rain  
Wind Chill: 40°   Ceiling: 200
Heat Index: 45°   Visibility: 4mi
Dew Point: 45°   Wind: 9mph
Humidity: 100%   Direction: 170°S
Pressure: 29.39"   Gusts: NA
Location:  44.11°N, 87.66°W
Report Text: KMTW 240056Z AUTO 17008KT 4SM -RA BR OVC002 07/07 A2939 RMK AO2 SLP978 P0002 T00720072
Loading
Personal Weather Stations






























Interactive Weather Map New forecast layout! Learn more

10-Day Weather Forecast

Advertisements
Track Severe Weather on mobile